Time;durP1;ratioP1;P1;durP2;ratioP2;P2;SDS_P1;SDS_P2;PMS_P1;PMS_P2;Temp;Humidity;BMP_temperature;BMP_pressure;BME280_temperature;BME280_humidity;BME280_pressure;Samples;Min_cycle;Max_cycle;Signal;HPM_P1;HPM_P2
2022/06/13 00:00:30;;;;;;;7.53;2.97;;;;;;;22.12;48.12;102126.38;4847266;29;20073;-77
2022/06/13 00:03:00;;;;;;;7.40;2.90;;;;;;;22.12;48.05;102129.00;4862639;29;20037;-79
2022/06/13 00:05:26;;;;;;;6.30;2.85;;;;;;;22.12;47.85;102126.38;4862069;29;20037;-77
2022/06/13 00:07:51;;;;;;;9.43;2.97;;;;;;;22.12;48.20;102121.13;4831373;29;20037;-77
2022/06/13 00:10:18;;;;;;;8.90;3.53;;;;;;;22.10;48.07;102113.31;4846947;29;20033;-77
2022/06/13 00:12:44;;;;;;;8.75;3.03;;;;;;;22.11;48.06;102114.16;4863384;29;20033;-79
2022/06/13 00:15:12;;;;;;;7.60;3.25;;;;;;;22.11;48.14;102112.41;4861793;29;20033;-79
2022/06/13 00:17:37;;;;;;;9.15;3.17;;;;;;;22.12;48.35;102121.13;4861938;29;20024;-79
2022/06/13 00:20:05;;;;;;;8.10;2.95;;;;;;;22.11;48.28;102120.28;4846518;29;20124;-79
2022/06/13 00:22:30;;;;;;;7.30;2.92;;;;;;;22.11;48.24;102115.03;4862476;29;20068;-79
2022/06/13 00:24:57;;;;;;;8.13;3.63;;;;;;;22.11;48.31;102108.94;4847722;29;20127;-77
2022/06/13 00:27:22;;;;;;;6.15;2.80;;;;;;;22.11;48.35;102108.94;4862495;29;20518;-78
2022/06/13 00:29:49;;;;;;;5.80;2.90;;;;;;;22.10;48.39;102110.69;4862000;29;20037;-80
2022/06/13 00:32:15;;;;;;;8.02;3.10;;;;;;;22.11;48.50;102108.94;4847099;29;20125;-78
2022/06/13 00:34:40;;;;;;;8.25;3.30;;;;;;;22.11;48.15;102103.69;4861646;29;20061;-78
2022/06/13 00:37:06;;;;;;;8.27;3.28;;;;;;;22.12;48.09;102097.53;4848583;29;20044;-78
2022/06/13 00:39:31;;;;;;;8.32;2.95;;;;;;;22.11;48.15;102096.69;4851422;29;20437;-79
2022/06/13 00:41:57;;;;;;;7.82;2.95;;;;;;;22.11;48.24;102108.94;4845307;29;20033;-78
2022/06/13 00:44:27;;;;;;;7.05;2.92;;;;;;;22.12;48.37;102108.03;4845120;29;20038;-78
2022/06/13 00:46:54;;;;;;;8.13;2.88;;;;;;;22.11;48.25;102098.44;4860534;29;20058;-78
2022/06/13 00:49:39;;;;;;;9.30;2.92;;;;;;;22.12;48.28;102105.41;4862095;29;20446;-78
2022/06/13 00:52:09;;;;;;;7.22;2.92;;;;;;;22.17;48.08;102108.88;4861032;29;20212;-79
2022/06/13 00:54:37;;;;;;;8.85;3.08;;;;;;;22.16;48.48;102115.00;4861971;29;20086;-78
2022/06/13 00:57:05;;;;;;;8.93;2.72;;;;;;;22.16;48.50;102110.63;4861562;29;20052;-78
2022/06/13 00:59:33;;;;;;;6.35;2.78;;;;;;;22.17;48.26;102101.03;4861531;29;20022;-79
2022/06/13 01:01:59;;;;;;;7.47;3.30;;;;;;;22.17;48.46;102098.41;4846538;29;20030;-78
2022/06/13 01:04:27;;;;;;;9.68;3.00;;;;;;;22.16;48.43;102094.03;4864013;29;20504;-78
2022/06/13 01:06:53;;;;;;;7.53;3.15;;;;;;;22.14;48.37;102090.53;4849962;29;20037;-78
2022/06/13 01:11:16;;;;;;;7.63;3.08;;;;;;;22.14;48.41;102096.66;4849981;29;20428;-79
2022/06/13 01:12:08;;;;;;;8.45;3.13;;;;;;;22.14;48.55;102099.25;4866243;29;20033;-78
2022/06/13 01:14:45;;;;;;;7.05;3.00;;;;;;;22.14;48.30;102093.16;4849609;29;20029;-78
2022/06/13 01:17:30;;;;;;;7.03;2.97;;;;;;;22.14;48.42;102101.03;4865106;29;20481;-78
2022/06/13 01:20:04;;;;;;;7.60;3.13;;;;;;;22.14;48.45;102095.78;4868528;29;20105;-78
2022/06/13 01:22:39;;;;;;;9.30;3.08;;;;;;;22.14;48.49;102108.88;4866024;29;20036;-78
2022/06/13 01:25:23;;;;;;;8.40;3.22;;;;;;;22.13;48.35;102096.69;4864972;29;20022;-79
2022/06/13 01:27:52;;;;;;;7.40;2.88;;;;;;;22.13;48.66;102100.16;4863923;29;20034;-78
2022/06/13 01:30:54;;;;;;;7.93;2.92;;;;;;;22.12;48.56;102101.06;4864217;29;20025;-79
2022/06/13 01:33:27;;;;;;;6.88;2.92;;;;;;;22.12;48.46;102097.53;4864055;29;20036;-79
2022/06/13 01:36:06;;;;;;;8.25;2.70;;;;;;;22.12;48.70;102101.06;4864434;29;20037;-78
2022/06/13 01:38:47;;;;;;;8.68;3.35;;;;;;;22.12;48.48;102097.53;4865802;29;20057;-78
2022/06/13 01:41:15;;;;;;;9.13;2.83;;;;;;;22.12;48.67;102100.16;4864750;29;20030;-78
2022/06/13 01:43:59;;;;;;;7.28;3.10;;;;;;;22.12;48.64;102105.41;4866725;29;20033;-78
2022/06/13 01:46:38;;;;;;;;;;;;;;;22.12;48.49;102111.53;4869071;29;20030;-78
2022/06/13 01:49:47;;;;;;;7.40;2.83;;;;;;;22.14;48.70;102108.88;4867654;29;19983;-79
2022/06/13 01:52:12;;;;;;;7.50;2.80;;;;;;;22.13;48.68;102104.53;4866361;29;20041;-78
2022/06/13 01:54:47;;;;;;;7.68;2.83;;;;;;;22.15;48.72;102108.03;4866732;29;20037;-78
2022/06/13 01:57:12;;;;;;;6.00;2.83;;;;;;;22.17;48.52;102112.38;4866220;29;20117;-79
2022/06/13 01:59:46;;;;;;;6.88;2.90;;;;;;;22.14;48.42;102103.66;4866734;29;20444;-78
2022/06/13 02:02:42;;;;;;;6.32;2.58;;;;;;;22.15;48.33;102103.66;4872062;29;20045;-78
2022/06/13 02:05:16;;;;;;;6.25;2.47;;;;;;;22.15;48.53;102100.16;4859306;29;20037;-78
2022/06/13 02:07:46;;;;;;;9.20;2.80;;;;;;;22.14;48.56;102107.13;4863162;29;20414;-79
2022/06/13 02:10:19;;;;;;;9.38;3.00;;;;;;;22.14;48.31;102111.50;4863983;29;20089;-78
2022/06/13 02:12:49;;;;;;;9.23;3.25;;;;;;;22.14;48.15;102108.88;4864804;29;20025;-77
2022/06/13 02:15:22;;;;;;;5.72;2.60;;;;;;;22.17;48.54;102108.88;4864994;29;20065;-78
2022/06/13 02:17:54;;;;;;;;;;;;;;;22.17;48.12;102108.88;4866660;29;20060;-78
2022/06/13 02:20:27;;;;;;;5.75;2.13;;;;;;;22.19;48.39;102112.38;4866418;29;19936;-78
2022/06/13 02:23:01;;;;;;;5.97;2.60;;;;;;;22.18;48.09;102111.47;4865406;29;20116;-78
2022/06/13 02:25:31;;;;;;;6.68;2.55;;;;;;;22.17;48.14;102114.13;4864972;29;20062;-78
2022/06/13 02:28:21;;;;;;;5.57;2.50;;;;;;;22.12;47.62;102100.16;4864821;29;20029;-78
2022/06/13 02:31:09;;;;;;;6.82;2.75;;;;;;;22.13;48.28;102108.03;4866318;29;20029;-78
2022/06/13 02:33:48;;;;;;;4.93;2.47;;;;;;;22.13;47.77;102109.78;4864214;29;20045;-78
2022/06/13 02:36:39;;;;;;;10.05;2.63;;;;;;;22.12;47.99;102111.53;4866040;29;20026;-78
2022/06/13 02:39:10;;;;;;;6.90;2.80;;;;;;;22.12;47.88;102114.16;4863091;29;20128;-78
2022/06/13 02:41:53;;;;;;;4.35;2.25;;;;;;;22.13;47.87;102115.91;4866213;29;20046;-79
2022/06/13 02:44:36;;;;;;;6.32;2.50;;;;;;;22.14;47.67;102114.13;4873457;29;20025;-78
2022/06/13 02:47:17;;;;;;;5.03;2.22;;;;;;;22.12;47.36;102114.16;4863725;29;20045;-79
2022/06/13 02:49:52;;;;;;;5.03;2.38;;;;;;;22.13;47.60;102115.91;4864169;29;20049;-78
2022/06/13 02:52:17;;;;;;;3.53;2.03;;;;;;;22.13;47.69;102120.28;4864063;29;20532;-78
2022/06/13 02:54:51;;;;;;;5.70;2.38;;;;;;;22.10;47.43;102113.31;4864114;29;20033;-78
2022/06/13 02:57:36;;;;;;;4.05;2.30;;;;;;;22.12;47.13;102118.53;4864742;29;20121;-78
2022/06/13 03:00:08;;;;;;;5.63;2.03;;;;;;;22.13;47.80;102112.41;4865090;29;20031;-78
2022/06/13 03:02:47;;;;;;;5.25;2.20;;;;;;;22.10;47.23;102121.19;4864859;29;20029;-79
2022/06/13 03:05:37;;;;;;;6.30;2.30;;;;;;;22.10;46.93;102120.28;4864030;29;20033;-79
2022/06/13 03:08:37;;;;;;;4.57;2.10;;;;;;;22.10;46.88;102115.94;4864240;29;20101;-78
2022/06/13 03:11:58;;;;;;;5.63;2.33;;;;;;;22.10;47.43;102121.19;4864335;29;20060;-78
2022/06/13 03:14:50;;;;;;;4.82;2.13;;;;;;;22.10;47.08;102126.41;4844129;29;20037;-78
2022/06/13 03:17:44;;;;;;;4.13;1.98;;;;;;;22.10;47.06;102123.81;4829628;29;20062;-78
2022/06/13 03:20:16;;;;;;;5.18;2.47;;;;;;;22.09;47.14;102127.28;4862383;29;20041;-78
2022/06/13 03:22:54;;;;;;;6.50;2.20;;;;;;;22.10;47.13;102131.66;4864114;29;20036;-78
2022/06/13 03:25:38;;;;;;;5.43;2.38;;;;;;;22.10;46.97;102130.75;4868848;29;20026;-78
2022/06/13 03:28:14;;;;;;;6.03;1.98;;;;;;;22.13;47.22;102141.25;4861922;29;20029;-78
2022/06/13 03:30:47;;;;;;;5.55;2.50;;;;;;;22.13;47.40;102130.75;4861591;29;20033;-78
2022/06/13 03:36:26;;;;;;;3.67;1.92;;;;;;;22.10;47.44;102136.91;4863355;29;20553;-78
2022/06/13 03:39:22;;;;;;;6.72;2.42;;;;;;;22.12;46.75;102137.75;4854843;29;20037;-78
2022/06/13 03:41:50;;;;;;;3.38;1.88;;;;;;;22.12;47.14;102142.13;4862272;29;20025;-79
2022/06/13 03:44:24;;;;;;;4.80;2.10;;;;;;;22.11;47.21;102146.50;4862909;29;20058;-78
2022/06/13 03:46:55;;;;;;;6.53;2.30;;;;;;;22.11;47.34;102146.50;4866103;29;20057;-78
2022/06/13 03:49:39;;;;;;;6.45;2.03;;;;;;;22.14;47.24;102148.22;4865762;29;20029;-78
2022/06/13 03:52:09;;;;;;;3.83;1.80;;;;;;;22.15;47.10;102152.59;4882805;29;20029;-79
2022/06/13 03:54:37;;;;;;;7.28;2.20;;;;;;;22.14;47.09;102150.84;4866236;29;20031;-79
2022/06/13 03:57:24;;;;;;;4.38;1.95;;;;;;;22.14;46.94;102156.94;4868650;29;20033;-79
2022/06/13 03:59:59;;;;;;;6.20;2.30;;;;;;;22.14;47.05;102149.06;4887188;29;20088;-79
2022/06/13 04:02:29;;;;;;;3.45;2.00;;;;;;;22.12;46.76;102156.13;4870748;29;20386;-78
2022/06/13 04:04:55;;;;;;;4.18;2.10;;;;;;;22.12;46.77;102150.88;4885925;29;20113;-79
2022/06/13 04:07:24;;;;;;;5.97;2.15;;;;;;;22.10;46.29;102149.13;4890883;29;20029;-78
2022/06/13 04:10:02;;;;;;;5.72;1.98;;;;;;;22.10;46.59;102156.97;4883302;29;20043;-78
2022/06/13 04:12:48;;;;;;;3.78;1.90;;;;;;;22.08;46.13;102157.03;4866705;29;20476;-78
2022/06/13 04:15:13;;;;;;;4.25;1.90;;;;;;;22.12;46.91;102158.75;4867035;29;20032;-78
2022/06/13 04:17:57;;;;;;;5.90;1.98;;;;;;;22.13;46.74;102154.34;4882903;29;20081;-78
2022/06/13 04:20:41;;;;;;;5.18;1.80;;;;;;;22.12;46.70;102155.22;4867841;29;20129;-79
2022/06/13 04:23:22;;;;;;;5.85;2.00;;;;;;;22.14;46.73;102156.09;4884485;29;20029;-78
2022/06/13 04:26:07;;;;;;;4.10;1.77;;;;;;;22.12;46.53;102158.75;4866240;29;20033;-80
2022/06/13 04:28:46;;;;;;;5.97;1.83;;;;;;;22.14;46.99;102161.31;4863888;29;20053;-79
2022/06/13 04:31:13;;;;;;;3.33;1.60;;;;;;;22.13;46.40;102163.09;4866509;29;20093;-78
2022/06/13 04:33:55;;;;;;;4.88;1.85;;;;;;;22.11;46.64;102159.59;4883732;29;20033;-79
2022/06/13 04:36:23;;;;;;;3.78;1.75;;;;;;;22.12;46.47;102156.13;4866722;29;20029;-78
2022/06/13 04:39:02;;;;;;;6.40;2.03;;;;;;;22.16;46.20;102162.19;4875815;29;20029;-83
2022/06/13 04:41:35;;;;;;;5.20;2.08;;;;;;;22.04;46.00;102164.91;4841442;29;20046;-81
2022/06/13 04:47:38;;;;;;;3.55;1.73;;;;;;;21.85;45.71;102169.41;5282503;23;20061;-80
2022/06/13 04:59:01;;;;;;;10.35;2.55;;;;;;;21.99;45.61;102172.78;4945076;23;20062;-79
2022/06/13 05:01:28;;;;;;;11.77;2.40;;;;;;;21.98;45.19;102169.31;4855443;29;20025;-77
2022/06/13 05:04:16;;;;;;;21.13;4.60;;;;;;;21.95;45.23;102176.34;4862026;29;20025;-78
2022/06/13 05:07:31;;;;;;;11.05;2.97;;;;;;;21.83;44.67;102174.66;4861338;29;20050;-81
2022/06/13 05:10:01;;;;;;;;;;;;;;;21.86;44.52;102176.38;4819973;29;20050;-79
2022/06/13 05:12:37;;;;;;;10.75;3.05;;;;;;;21.78;44.74;102179.06;4803698;29;20010;-81
2022/06/13 05:18:04;;;;;;;9.70;2.60;;;;;;;21.72;44.02;102185.19;4896218;29;20053;-80
2022/06/13 05:20:39;;;;;;;7.40;2.35;;;;;;;21.71;43.92;102193.03;4874036;29;20040;-79
2022/06/13 05:23:29;;;;;;;8.68;2.47;;;;;;;21.76;44.08;102204.41;4875245;29;20028;-78
2022/06/13 05:25:58;;;;;;;9.63;2.85;;;;;;;21.71;43.78;102203.53;4873520;29;20033;-79
2022/06/13 05:28:26;;;;;;;10.02;2.67;;;;;;;21.75;43.77;102203.53;4859524;29;20029;-78
2022/06/13 05:30:54;;;;;;;10.27;2.50;;;;;;;21.76;43.66;102202.63;4876953;29;20037;-78
2022/06/13 05:33:29;;;;;;;8.52;2.25;;;;;;;21.81;43.57;102209.59;4870783;29;20025;-78
2022/06/13 05:35:57;;;;;;;12.05;2.67;;;;;;;21.82;43.38;102208.72;4888445;29;20029;-78
2022/06/13 05:38:34;;;;;;;9.07;2.25;;;;;;;21.84;43.00;102218.34;4856635;29;20471;-78
2022/06/13 05:40:59;;;;;;;8.02;2.20;;;;;;;21.83;42.67;102207.84;4871138;29;20112;-79
2022/06/13 05:43:25;;;;;;;7.22;2.20;;;;;;;21.84;43.48;102222.69;4841832;29;20464;-78
2022/06/13 05:45:50;;;;;;;11.05;2.40;;;;;;;21.86;42.79;102215.69;4855321;29;20092;-78
2022/06/13 05:48:19;;;;;;;6.97;2.20;;;;;;;21.90;43.14;102218.28;4869283;29;20033;-78
2022/06/13 05:50:45;;;;;;;6.28;2.00;;;;;;;22.06;42.63;102231.28;4865445;29;20025;-79
2022/06/13 05:53:12;;;;;;;7.85;2.33;;;;;;;22.17;42.94;102227.72;4882284;29;20392;-79
2022/06/13 05:55:38;;;;;;;6.60;2.33;;;;;;;22.22;42.80;102225.09;4865534;29;20120;-79
2022/06/13 05:58:04;;;;;;;5.88;1.92;;;;;;;22.29;42.63;102237.28;4850144;29;20516;-78
2022/06/13 06:00:37;;;;;;;7.38;2.50;;;;;;;22.35;42.77;102226.75;4850145;29;20400;-78
2022/06/13 06:03:03;;;;;;;;;;;;;;;22.45;42.32;102231.91;4865856;29;20033;-79
2022/06/13 06:05:28;;;;;;;8.25;2.40;;;;;;;23.08;41.03;102241.88;4850122;29;19916;-78
2022/06/13 06:07:53;;;;;;;10.02;2.50;;;;;;;23.25;40.70;102232.06;4849855;29;20428;-79
2022/06/13 06:10:23;;;;;;;7.05;2.28;;;;;;;22.89;41.77;102246.44;4865450;29;20033;-78
2022/06/13 06:12:48;;;;;;;6.10;1.77;;;;;;;22.91;41.46;102242.03;4873240;29;20029;-79
2022/06/13 06:15:14;;;;;;;5.82;1.88;;;;;;;23.21;40.70;102256.63;4850333;29;20128;-79
2022/06/13 06:17:39;;;;;;;7.65;2.30;;;;;;;22.83;41.50;102252.59;4831360;29;20061;-79
2022/06/13 06:20:05;;;;;;;7.18;1.92;;;;;;;23.14;41.03;102260.19;4847001;29;20037;-78
2022/06/13 06:22:30;;;;;;;6.97;1.98;;;;;;;23.32;40.58;102256.50;4846786;29;20029;-79
2022/06/13 06:24:56;;;;;;;5.05;2.08;;;;;;;24.16;38.84;102259.84;4846736;29;20065;-78
2022/06/13 06:27:21;;;;;;;9.77;2.20;;;;;;;23.80;39.21;102244.56;4846814;29;20456;-78
2022/06/13 06:29:47;;;;;;;5.68;1.98;;;;;;;23.82;39.74;102257.66;4846347;29;20139;-78
2022/06/13 06:32:12;;;;;;;5.45;1.95;;;;;;;23.33;40.29;102271.38;4831073;29;20090;-78
2022/06/13 06:34:37;;;;;;;6.53;2.00;;;;;;;22.92;41.52;102265.63;4831185;29;20529;-78
2022/06/13 06:37:03;;;;;;;6.70;2.13;;;;;;;22.68;41.35;102269.34;4831170;29;20033;-78
2022/06/13 06:39:28;;;;;;;6.47;1.80;;;;;;;24.08;38.97;102262.56;4831246;29;20032;-78
2022/06/13 06:41:54;;;;;;;5.22;1.98;;;;;;;24.25;38.94;102261.47;4831005;29;20033;-78
2022/06/13 06:44:19;;;;;;;5.47;1.80;;;;;;;24.35;38.50;102266.56;4831159;29;20037;-79
2022/06/13 06:46:44;;;;;;;5.70;1.83;;;;;;;24.09;38.83;102260.81;4846409;29;20480;-78
2022/06/13 06:49:10;;;;;;;6.60;2.10;;;;;;;23.42;40.69;102273.91;4830974;29;20548;-78
2022/06/13 06:51:35;;;;;;;5.60;1.92;;;;;;;24.16;39.46;102273.84;4846891;29;20041;-78
2022/06/13 07:02:14;;;;;;;5.20;1.83;;;;;;;25.57;35.98;102272.34;4848268;29;20078;-80
2022/06/13 07:04:40;;;;;;;6.00;2.00;;;;;;;25.62;36.10;102267.84;4845905;29;20434;-80
2022/06/13 07:07:05;;;;;;;4.45;1.70;;;;;;;25.62;35.57;102271.34;4861493;29;20087;-80
2022/06/13 07:09:31;;;;;;;4.38;1.95;;;;;;;24.79;37.44;102274.66;4846022;29;20045;-78
2022/06/13 07:11:57;;;;;;;3.85;1.55;;;;;;;25.19;36.84;102287.09;4830773;29;20033;-79
2022/06/13 07:14:34;;;;;;;5.63;1.63;;;;;;;24.26;38.47;102289.50;4846076;29;20128;-78
2022/06/13 07:17:03;;;;;;;3.88;1.80;;;;;;;23.70;39.45;102294.59;4830255;29;20519;-78
2022/06/13 07:19:29;;;;;;;3.83;1.80;;;;;;;23.74;39.72;102296.31;4845935;29;20029;-78
2022/06/13 07:21:55;;;;;;;3.67;1.35;;;;;;;24.55;38.24;102304.88;4830413;29;20053;-78
2022/06/13 07:24:21;;;;;;;3.92;1.77;;;;;;;23.63;40.28;102309.59;4845417;29;20053;-78
2022/06/13 07:26:48;;;;;;;4.22;1.58;;;;;;;23.39;40.25;102316.84;4862249;29;20481;-78
2022/06/13 07:29:16;;;;;;;5.45;1.80;;;;;;;23.36;40.52;102311.59;4861908;29;20041;-78
2022/06/13 07:32:07;;;;;;;6.60;1.75;;;;;;;23.14;41.25;102316.22;4845700;29;20428;-78
2022/06/13 07:34:35;;;;;;;6.97;1.90;;;;;;;24.71;37.65;102314.25;4850960;29;20493;-78
2022/06/13 07:37:03;;;;;;;3.90;1.75;;;;;;;24.93;37.07;102317.41;4855075;29;20370;-79
2022/06/13 07:39:29;;;;;;;4.22;1.70;;;;;;;25.27;36.25;102326.53;4846050;29;20022;-80
2022/06/13 07:41:55;;;;;;;7.57;1.75;;;;;;;25.05;37.17;102322.47;4830522;29;20029;-81
2022/06/13 07:44:27;;;;;;;5.85;1.80;;;;;;;24.26;38.46;102321.94;4830449;29;20040;-80
2022/06/13 07:46:53;;;;;;;4.35;1.67;;;;;;;24.37;38.64;102321.78;4846020;29;20117;-87
2022/06/13 07:49:19;;;;;;;3.58;1.40;;;;;;;24.47;37.99;102323.38;4830847;29;20477;-86
2022/06/13 07:51:45;;;;;;;3.75;1.40;;;;;;;24.03;39.08;102338.88;4846219;29;20037;-86
2022/06/13 07:54:10;;;;;;;4.45;1.60;;;;;;;23.76;39.39;102334.84;4831100;29;20116;-86
2022/06/13 07:56:38;;;;;;;3.58;1.42;;;;;;;23.91;39.46;102339.06;4830158;29;20477;-78
2022/06/13 07:59:05;;;;;;;5.47;1.50;;;;;;;23.79;39.59;102347.94;4830474;29;20544;-78
2022/06/13 08:01:30;;;;;;;4.47;1.55;;;;;;;23.35;40.36;102348.41;4845478;29;20465;-80
2022/06/13 08:03:56;;;;;;;4.45;1.30;;;;;;;23.73;39.42;102355.00;4830254;29;20041;-80
2022/06/13 08:06:23;;;;;;;5.38;1.65;;;;;;;23.60;39.82;102356.91;4845632;29;20098;-79
2022/06/13 08:08:50;;;;;;;3.90;1.60;;;;;;;23.61;39.60;102362.16;4844945;29;20025;-80
2022/06/13 08:11:18;;;;;;;5.18;1.80;;;;;;;23.67;39.33;102358.59;4844992;29;20029;-79
2022/06/13 08:13:44;;;;;;;3.60;1.50;;;;;;;23.49;40.00;102371.91;4844406;29;20052;-80
2022/06/13 08:16:11;;;;;;;3.95;1.42;;;;;;;23.58;40.31;102369.19;4844913;29;20141;-79
2022/06/13 08:18:37;;;;;;;6.32;1.40;;;;;;;23.52;40.16;102377.16;4853554;29;20022;-81
2022/06/13 08:21:03;;;;;;;6.22;1.45;;;;;;;23.73;39.57;102373.41;4845321;29;20022;-80
2022/06/13 08:23:29;;;;;;;4.70;1.50;;;;;;;23.45;40.16;102380.72;4845375;29;20391;-80
2022/06/13 08:25:54;;;;;;;5.65;1.40;;;;;;;23.43;40.13;102386.00;4829973;29;20030;-80
2022/06/13 08:28:20;;;;;;;4.07;1.60;;;;;;;23.46;40.11;102387.72;4845611;29;20393;-88
2022/06/13 08:30:59;;;;;;;5.85;1.40;;;;;;;23.46;39.98;102390.34;4849810;29;20029;-87
2022/06/13 08:33:25;;;;;;;4.43;1.30;;;;;;;23.40;40.38;102386.88;4866163;29;20026;-86
2022/06/13 08:35:51;;;;;;;4.35;1.33;;;;;;;23.54;39.91;102385.88;4848460;29;20060;-86
2022/06/13 08:38:17;;;;;;;5.35;1.92;;;;;;;23.34;40.42;102389.59;4849655;29;20025;-85
2022/06/13 08:41:03;;;;;;;4.13;1.45;;;;;;;23.30;40.54;102393.13;4862228;29;20109;-86
2022/06/13 08:44:06;;;;;;;3.47;1.35;;;;;;;23.24;41.12;102395.78;4847125;29;20041;-85
2022/06/13 08:46:58;;;;;;;5.22;1.60;;;;;;;23.34;40.81;102404.44;4833950;29;20073;-86
2022/06/13 08:49:35;;;;;;;4.25;1.20;;;;;;;23.39;40.48;102394.78;4847482;29;20057;-89
2022/06/13 08:52:13;;;;;;;4.47;1.58;;;;;;;23.56;39.97;102402.50;4848315;29;20056;-87
2022/06/13 08:54:41;;;;;;;4.20;1.52;;;;;;;23.51;40.01;102402.53;4847798;29;20442;-87
2022/06/13 08:57:10;;;;;;;6.15;1.52;;;;;;;23.31;40.31;102407.13;4845487;29;20037;-87
2022/06/13 08:59:41;;;;;;;3.78;1.30;;;;;;;23.17;40.81;102413.38;4844484;29;20029;-87
2022/06/13 09:02:20;;;;;;;5.68;1.33;;;;;;;23.32;40.45;102408.84;4846752;29;20112;-87
2022/06/13 09:04:58;;;;;;;4.53;1.40;;;;;;;23.35;40.62;102408.84;4846184;29;20033;-87
2022/06/13 09:07:24;;;;;;;4.70;1.40;;;;;;;23.39;40.23;102415.81;4846709;29;20078;-78
2022/06/13 09:09:52;;;;;;;3.90;1.50;;;;;;;23.38;40.42;102414.91;4844362;29;20029;-79
2022/06/13 09:12:34;;;;;;;4.88;1.40;;;;;;;23.38;40.52;102427.19;4844171;29;20037;-79
2022/06/13 09:15:15;;;;;;;4.57;1.75;;;;;;;23.38;40.45;102428.03;4844168;29;20471;-79
2022/06/13 09:18:04;;;;;;;4.35;1.45;;;;;;;23.25;40.69;102431.66;4844412;29;20128;-79
2022/06/13 09:20:53;;;;;;;4.70;1.58;;;;;;;23.32;40.54;102425.50;4861202;29;20041;-79
2022/06/13 09:23:25;;;;;;;4.88;1.40;;;;;;;23.40;40.54;102426.28;4845608;29;20050;-88
2022/06/13 09:26:03;;;;;;;5.22;1.50;;;;;;;23.28;40.31;102438.66;4848849;29;20029;-87
2022/06/13 09:28:39;;;;;;;4.13;1.42;;;;;;;23.26;40.47;102438.69;4849743;29;20032;-88
2022/06/13 09:31:14;;;;;;;2.72;1.00;;;;;;;23.32;40.90;102443.88;4850289;29;20029;-78
2022/06/13 09:33:57;;;;;;;5.47;1.40;;;;;;;23.28;40.60;102444.78;4848341;29;20029;-78
2022/06/13 09:36:32;;;;;;;5.53;1.30;;;;;;;23.31;40.54;102446.53;4848248;29;20021;-81
2022/06/13 09:39:05;;;;;;;5.72;1.65;;;;;;;23.32;40.44;102445.63;4848351;29;20037;-79
2022/06/13 09:41:39;;;;;;;3.45;1.20;;;;;;;23.18;40.55;102453.63;4873199;29;20030;-79
2022/06/13 09:44:36;;;;;;;4.57;1.30;;;;;;;23.09;40.94;102454.56;4866838;29;20448;-78
2022/06/13 09:47:12;;;;;;;4.32;1.38;;;;;;;23.17;41.01;102444.00;4865159;29;20101;-78
2022/06/13 09:49:52;;;;;;;4.57;1.48;;;;;;;23.13;40.77;102452.78;4849721;29;20037;-78
2022/06/13 09:52:36;;;;;;;5.93;1.40;;;;;;;23.17;40.58;102447.50;4851456;29;20036;-77
2022/06/13 09:55:10;;;;;;;;;;;;;;;23.18;40.29;102445.75;4855372;29;20029;-78
2022/06/13 09:57:39;;;;;;;4.03;1.30;;;;;;;23.12;40.56;102449.28;4858993;29;19912;-78
2022/06/13 10:00:14;;;;;;;3.42;1.50;;;;;;;23.09;41.17;102441.44;4872280;29;20447;-77
2022/06/13 10:03:09;;;;;;;2.42;1.15;;;;;;;23.08;41.08;102447.56;4853135;29;20033;-79
2022/06/13 10:05:36;;;;;;;3.33;1.17;;;;;;;23.02;40.92;102460.75;4856006;29;20048;-78
2022/06/13 10:08:17;;;;;;;4.53;1.40;;;;;;;23.02;41.56;102451.97;4856001;29;20033;-79
2022/06/13 10:10:54;;;;;;;4.07;1.40;;;;;;;23.02;40.51;102451.97;4849306;29;20034;-77
2022/06/13 10:13:37;;;;;;;4.13;1.17;;;;;;;23.05;41.30;102465.09;4863941;29;20033;-77
2022/06/13 10:16:15;;;;;;;3.35;1.13;;;;;;;23.03;40.81;102454.59;4846873;29;20810;-77
2022/06/13 10:19:00;;;;;;;5.90;1.70;;;;;;;23.02;40.49;102465.09;4847339;29;20037;-78
2022/06/13 10:21:36;;;;;;;3.67;1.30;;;;;;;22.99;40.39;102461.59;4847434;29;20101;-78
2022/06/13 10:24:24;;;;;;;4.00;1.40;;;;;;;22.97;40.99;102466.00;4856317;29;20025;-77
2022/06/13 10:27:06;;;;;;;3.75;1.20;;;;;;;22.96;40.74;102469.50;4848445;29;20037;-84
2022/06/13 10:29:42;;;;;;;4.43;1.30;;;;;;;22.97;40.31;102473.88;4848618;29;20374;-86
2022/06/13 10:32:24;;;;;;;5.60;1.33;;;;;;;22.98;40.49;102469.50;4847997;29;20471;-85
2022/06/13 10:34:59;;;;;;;5.53;1.48;;;;;;;22.97;40.55;102466.00;4848430;29;20057;-85
2022/06/13 10:38:05;;;;;;;3.67;1.23;;;;;;;22.99;40.52;102476.47;4847330;29;20033;-84
2022/06/13 10:40:32;;;;;;;3.70;1.42;;;;;;;22.98;40.48;102482.63;4864421;29;20052;-85
2022/06/13 10:42:58;;;;;;;3.58;1.27;;;;;;;22.96;41.07;102477.38;4833380;29;20041;-86
2022/06/13 10:45:24;;;;;;;2.78;1.10;;;;;;;22.97;40.35;102479.13;4848867;29;20045;-86
2022/06/13 10:48:05;;;;;;;9.02;1.65;;;;;;;22.97;40.79;102478.22;4865088;29;20029;-86
2022/06/13 10:51:03;;;;;;;6.10;1.52;;;;;;;22.97;40.56;102475.59;4848567;29;20061;-86
2022/06/13 10:53:43;;;;;;;5.03;1.50;;;;;;;23.00;40.40;102486.13;4860289;29;20041;-86
2022/06/13 10:56:23;;;;;;;5.95;1.67;;;;;;;23.01;40.64;102490.50;4848387;29;20106;-86
2022/06/13 10:58:52;;;;;;;4.88;1.20;;;;;;;23.04;41.12;102484.34;4848862;29;20022;-78
2022/06/13 11:01:23;;;;;;;5.53;1.30;;;;;;;22.99;40.86;102486.97;4864547;29;20033;-86
2022/06/13 11:04:06;;;;;;;3.78;1.50;;;;;;;22.98;40.72;102486.09;4852793;29;20013;-85
2022/06/13 11:07:00;;;;;;;3.72;1.40;;;;;;;23.02;40.97;102483.47;4855541;29;20077;-85
2022/06/13 11:09:38;;;;;;;4.13;1.33;;;;;;;22.98;40.39;102485.25;4864626;29;20045;-85
2022/06/13 11:12:16;;;;;;;4.53;1.45;;;;;;;23.00;41.01;102489.63;4865094;29;20039;-85
2022/06/13 11:23:48;;;;;;;4.90;1.77;;;;;;;22.96;40.36;102510.63;4863026;29;20057;-78
2022/06/13 11:28:59;;;;;;;4.78;1.50;;;;;;;22.92;40.84;102503.66;4861715;29;20535;-78
2022/06/13 11:31:26;;;;;;;4.78;1.50;;;;;;;22.94;40.79;102508.00;4845744;29;20042;-78
2022/06/13 11:33:53;;;;;;;3.67;1.48;;;;;;;22.94;40.57;102508.00;4831215;29;20373;-78
2022/06/13 11:36:27;;;;;;;7.25;1.85;;;;;;;22.95;39.62;102506.25;4845786;29;20104;-77
2022/06/13 11:38:52;;;;;;;5.70;1.63;;;;;;;22.97;40.14;102508.00;4845532;29;20429;-78
2022/06/13 11:41:41;;;;;;;6.07;1.55;;;;;;;22.93;39.91;102508.91;4845818;29;20064;-78
2022/06/13 11:44:12;;;;;;;5.65;1.70;;;;;;;22.93;40.67;102505.38;4834136;29;20052;-78
2022/06/13 11:47:04;;;;;;;6.03;1.67;;;;;;;22.94;40.89;102513.25;4847771;29;20021;-77
2022/06/13 11:49:41;;;;;;;6.10;1.60;;;;;;;22.93;40.17;102510.63;4845392;29;20396;-78
2022/06/13 11:52:09;;;;;;;5.05;1.85;;;;;;;22.95;40.23;102512.38;4845506;29;20060;-78
2022/06/13 11:54:39;;;;;;;5.30;1.63;;;;;;;22.92;40.06;102507.13;4845740;29;20026;-78
2022/06/13 11:57:19;;;;;;;6.68;1.85;;;;;;;22.93;39.90;102508.00;4845468;29;20489;-78
2022/06/13 11:59:55;;;;;;;5.00;1.52;;;;;;;22.94;39.81;102518.50;4845481;29;20021;-77
2022/06/13 12:02:26;;;;;;;4.55;1.45;;;;;;;22.98;40.02;102522.84;4846044;29;20511;-78
2022/06/13 12:04:56;;;;;;;8.18;2.00;;;;;;;23.01;40.08;102519.38;4845206;29;20142;-78
2022/06/13 12:07:31;;;;;;;5.03;1.67;;;;;;;23.01;40.26;102519.38;4861821;29;20029;-77
2022/06/13 12:09:59;;;;;;;3.47;1.40;;;;;;;23.00;40.62;102523.75;4845298;29;20025;-78
2022/06/13 12:12:27;;;;;;;6.75;1.70;;;;;;;23.00;40.00;102518.50;4845125;29;20102;-77
2022/06/13 12:14:53;;;;;;;5.32;1.63;;;;;;;23.02;39.79;102528.13;4845260;29;20200;-78
2022/06/13 12:17:33;;;;;;;4.45;1.65;;;;;;;23.00;40.22;102526.38;4845007;29;20073;-77
2022/06/13 12:20:20;;;;;;;6.55;1.73;;;;;;;23.03;40.49;102516.75;4845455;29;20025;-78
2022/06/13 12:22:57;;;;;;;3.25;1.60;;;;;;;23.06;39.95;102529.84;4845588;29;20057;-78
2022/06/13 12:25:34;;;;;;;8.32;2.10;;;;;;;23.07;40.45;102526.34;4845329;29;20029;-78
2022/06/13 12:28:09;;;;;;;3.95;1.40;;;;;;;23.07;40.35;102521.97;4864058;29;20029;-77
2022/06/13 12:30:41;;;;;;;4.57;1.60;;;;;;;23.08;41.32;102530.72;4849382;29;20169;-78
2022/06/13 12:33:24;;;;;;;4.63;1.58;;;;;;;23.06;40.26;102524.59;4861606;29;20499;-77
2022/06/13 12:36:01;;;;;;;6.55;1.92;;;;;;;23.03;40.26;102525.50;4861623;29;20044;-78